Time;durP1;ratioP1;P1;durP2;ratioP2;P2;SDS_P1;SDS_P2;PMS_P1;PMS_P2;Temp;Humidity;BMP_temperature;BMP_pressure;BME280_temperature;BME280_humidity;BME280_pressure;Samples;Min_cycle;Max_cycle;Signal;HPM_P1;HPM_P2
2022/04/20 00:03:15;;;;;;;1999.90;999.90;;;;;;;8.81;59.43;101222.44;15464215;28;20108;-58
2022/04/20 00:10:48;;;;;;;1999.90;999.90;;;;;;;8.77;60.17;101221.41;15499154;28;20093;-60
2022/04/20 00:18:21;;;;;;;1999.90;999.90;;;;;;;8.81;60.86;101222.44;15480891;28;20038;-60
2022/04/20 00:25:54;;;;;;;1999.90;999.90;;;;;;;8.92;60.66;101227.50;15496796;28;20496;-59
2022/04/20 00:33:27;;;;;;;1999.90;999.90;;;;;;;9.15;59.80;101238.72;15487360;28;20042;-61
2022/04/20 00:41:00;;;;;;;1999.90;999.90;;;;;;;9.30;59.27;101245.94;15471630;28;20050;-58
2022/04/20 00:48:35;;;;;;;1999.90;999.90;;;;;;;9.53;59.03;101244.84;15487217;28;20074;-58
2022/04/20 00:56:09;;;;;;;1999.90;999.90;;;;;;;9.68;58.90;101232.50;15493883;28;20396;-60
2022/04/20 01:03:41;;;;;;;1999.90;999.90;;;;;;;9.73;58.61;101232.41;15477269;28;20038;-61
2022/04/20 01:11:32;;;;;;;1999.90;999.90;;;;;;;9.42;59.93;101235.06;15478947;28;20488;-60
2022/04/20 01:19:17;;;;;;;1999.90;999.90;;;;;;;9.50;59.27;101220.41;15489952;28;20400;-58
2022/04/20 01:27:08;;;;;;;1999.90;999.90;;;;;;;9.57;59.15;101231.91;15495364;28;20137;-58
2022/04/20 01:35:10;;;;;;;1999.90;999.90;;;;;;;9.61;59.39;101230.19;15484660;28;20411;-60
2022/04/20 01:42:45;;;;;;;1999.90;999.90;;;;;;;9.30;60.48;101224.47;15492421;28;20104;-56
2022/04/20 01:50:17;;;;;;;1999.90;999.90;;;;;;;9.57;59.64;101212.41;15486933;28;20045;-59
2022/04/20 01:58:11;;;;;;;1999.90;999.90;;;;;;;9.62;58.85;101215.09;15486950;28;20563;-60
2022/04/20 02:05:55;;;;;;;1999.90;999.90;;;;;;;9.39;60.42;101211.47;15486088;28;20572;-58
2022/04/20 02:13:51;;;;;;;1999.90;999.90;;;;;;;9.53;59.28;101206.66;15490435;28;20050;-60
2022/04/20 02:21:24;;;;;;;1999.90;999.90;;;;;;;9.39;60.45;101205.88;15501688;28;20050;-58
2022/04/20 02:28:57;;;;;;;1999.90;999.90;;;;;;;9.50;60.82;101212.06;15502975;28;20070;-56
2022/04/20 02:36:31;;;;;;;1999.90;999.90;;;;;;;9.28;61.61;101209.22;15501130;28;20042;-59
2022/04/20 02:44:06;;;;;;;1999.90;999.90;;;;;;;9.65;60.70;101199.72;15490783;28;20053;-59
2022/04/20 02:51:38;;;;;;;1999.90;999.90;;;;;;;9.54;60.77;101199.13;15500285;28;20038;-60
2022/04/20 02:59:12;;;;;;;1999.90;999.90;;;;;;;9.42;61.09;101196.06;15499886;28;20100;-57
2022/04/20 03:06:46;;;;;;;1999.90;999.90;;;;;;;9.33;61.81;101204.34;15482781;28;20038;-59
2022/04/20 03:14:29;;;;;;;1999.90;999.90;;;;;;;9.46;61.75;101199.88;15483929;28;20129;-57
2022/04/20 03:22:05;;;;;;;1999.90;999.90;;;;;;;9.49;62.33;101213.19;15474484;28;20117;-59
2022/04/20 03:29:41;;;;;;;1999.90;999.90;;;;;;;9.45;62.57;101206.59;15448695;28;20134;-59
2022/04/20 03:37:13;;;;;;;1999.90;999.90;;;;;;;9.55;62.71;101203.56;15471174;28;20455;-59
2022/04/20 03:44:47;;;;;;;1999.90;999.90;;;;;;;9.31;63.75;101211.38;15497084;28;20145;-60
2022/04/20 03:52:19;;;;;;;1999.90;999.90;;;;;;;9.23;64.00;101208.19;15480410;28;20523;-57
2022/04/20 03:59:54;;;;;;;1999.90;999.90;;;;;;;9.17;64.60;101209.44;15428722;28;20046;-58
2022/04/20 04:07:28;;;;;;;1999.90;999.90;;;;;;;9.26;64.44;101217.84;15491905;28;20085;-59
2022/04/20 04:15:05;;;;;;;1999.90;999.90;;;;;;;9.77;63.29;101231.44;15493146;28;20035;-59
2022/04/20 04:22:39;;;;;;;1999.90;999.90;;;;;;;9.34;65.02;101211.56;15453763;28;20041;-60
2022/04/20 04:30:27;;;;;;;1999.90;999.90;;;;;;;9.71;64.91;101212.41;15473790;28;20129;-59
2022/04/20 04:38:08;;;;;;;1999.90;999.90;;;;;;;9.90;63.97;101212.19;15491249;28;20042;-57
2022/04/20 04:53:44;;;;;;;1999.90;999.90;;;;;;;9.83;64.66;101210.69;15414197;28;19922;-59
2022/04/20 05:01:22;;;;;;;1999.90;999.90;;;;;;;10.36;63.42;101212.72;15487391;28;20034;-59
2022/04/20 05:08:55;;;;;;;1999.90;999.90;;;;;;;10.28;63.27;101223.81;15487155;28;20046;-56
2022/04/20 05:16:29;;;;;;;1999.90;999.90;;;;;;;10.76;62.05;101209.13;15502578;28;20034;-58
2022/04/20 05:24:02;;;;;;;1999.90;999.90;;;;;;;11.31;61.31;101215.03;15485617;28;20037;-60
2022/04/20 05:31:40;;;;;;;1999.90;999.90;;;;;;;12.01;59.74;101204.75;15490579;28;20047;-59
2022/04/20 05:47:07;;;;;;;1999.90;999.90;;;;;;;12.63;57.63;101216.28;15478267;28;20535;-60
2022/04/20 05:54:39;;;;;;;1999.90;999.90;;;;;;;13.07;56.96;101219.69;15490216;28;20042;-59
2022/04/20 06:02:13;;;;;;;1999.90;999.90;;;;;;;13.43;55.21;101226.75;15488172;28;20042;-60
2022/04/20 06:09:46;;;;;;;1999.90;999.90;;;;;;;14.02;52.92;101229.44;15474525;28;20242;-60
2022/04/20 06:17:20;;;;;;;1999.90;999.90;;;;;;;14.00;54.67;101231.78;15513878;28;20046;-62
2022/04/20 06:25:00;;;;;;;1999.90;999.90;;;;;;;14.18;52.49;101235.25;15505221;28;20125;-60
2022/04/20 06:33:02;;;;;;;1999.90;999.90;;;;;;;13.84;53.00;101232.38;15507680;28;20117;-59
2022/04/20 06:40:55;;;;;;;1999.90;999.90;;;;;;;15.63;50.37;101228.19;15500204;28;20038;-59
2022/04/20 06:48:49;;;;;;;1999.90;999.90;;;;;;;15.99;49.44;101223.59;15448005;28;20042;-61
2022/04/20 07:04:31;;;;;;;1999.90;999.90;;;;;;;14.80;50.15;101214.56;15433269;28;20051;-59
2022/04/20 07:12:26;;;;;;;1999.90;999.90;;;;;;;14.65;50.29;101221.72;15444326;28;20050;-61
2022/04/20 07:20:00;;;;;;;1999.90;999.90;;;;;;;15.01;49.95;101227.38;15494786;28;20042;-59
2022/04/20 07:27:50;;;;;;;1999.90;999.90;;;;;;;16.27;47.05;101234.88;15479815;28;20034;-60
2022/04/20 07:35:57;;;;;;;1999.90;999.90;;;;;;;16.33;45.27;101236.22;15479161;28;20070;-60
2022/04/20 07:43:49;;;;;;;1999.90;999.90;;;;;;;14.61;49.32;101234.81;15496447;28;20205;-62
2022/04/20 07:51:35;;;;;;;1999.90;999.90;;;;;;;14.09;49.85;101238.94;15474304;28;20078;-60
2022/04/20 07:59:26;;;;;;;1999.90;999.90;;;;;;;14.53;48.67;101250.59;15489841;28;20078;-62
2022/04/20 08:07:19;;;;;;;1999.90;999.90;;;;;;;14.45;48.43;101248.69;15458984;28;20046;-61
2022/04/20 08:14:52;;;;;;;1999.90;999.90;;;;;;;14.07;49.47;101251.69;15484500;28;20046;-61
2022/04/20 08:22:44;;;;;;;1999.90;999.90;;;;;;;15.39;47.04;101247.84;15475884;28;20050;-60
2022/04/20 08:30:16;;;;;;;1999.90;999.90;;;;;;;17.23;43.52;101243.06;15492196;28;20050;-60
2022/04/20 08:37:50;;;;;;;1999.90;999.90;;;;;;;17.72;39.57;101237.00;15455508;28;20052;-61
2022/04/20 08:45:22;;;;;;;1999.90;999.90;;;;;;;17.03;39.57;101236.53;15490117;28;20471;-62
2022/04/20 08:52:58;;;;;;;1999.90;999.90;;;;;;;16.92;41.51;101226.97;15489733;28;20051;-60
2022/04/20 09:00:31;;;;;;;1999.90;999.90;;;;;;;16.41;40.92;101222.00;15475265;28;20042;-62
2022/04/20 09:08:12;;;;;;;1999.90;999.90;;;;;;;15.61;40.25;101216.44;15496088;28;20050;-62
2022/04/20 09:15:45;;;;;;;1999.90;999.90;;;;;;;15.67;40.96;101222.66;15491944;28;20046;-62
2022/04/20 09:23:18;;;;;;;1999.90;999.90;;;;;;;15.08;43.55;101223.16;15492159;28;20042;-62
2022/04/20 09:30:52;;;;;;;1999.90;999.90;;;;;;;14.81;45.66;101235.91;15497391;28;20038;-60
2022/04/20 09:38:26;;;;;;;1999.90;999.90;;;;;;;14.72;46.86;101244.44;15497612;28;20046;-62
2022/04/20 09:54:24;;;;;;;1999.90;999.90;;;;;;;14.78;49.19;101254.25;15502368;28;20050;-62
2022/04/20 10:01:56;;;;;;;1999.90;999.90;;;;;;;14.15;49.98;101270.41;15492153;28;20046;-61
2022/04/20 10:09:30;;;;;;;1999.90;999.90;;;;;;;14.20;53.29;101256.19;15482962;28;20054;-61
2022/04/20 10:17:05;;;;;;;;;;;;;;;15.14;50.76;101244.25;15469102;28;20058;-60
2022/04/20 10:24:42;;;;;;;1999.90;999.90;;;;;;;15.29;49.17;101244.34;15489692;28;20449;-61
2022/04/20 10:32:22;;;;;;;1999.90;999.90;;;;;;;15.49;48.60;101238.94;15498824;28;20100;-59
2022/04/20 10:40:15;;;;;;;1999.90;999.90;;;;;;;15.13;48.28;101226.56;15469538;28;20054;-60
2022/04/20 10:47:56;;;;;;;1999.90;999.90;;;;;;;15.01;50.15;101220.94;15497392;28;20043;-60
2022/04/20 10:55:54;;;;;;;1999.90;999.90;;;;;;;14.90;49.31;101211.31;15480211;28;20047;-61
2022/04/20 11:03:26;;;;;;;1999.90;999.90;;;;;;;15.54;47.04;101179.66;15512892;28;20068;-60
2022/04/20 11:19:04;;;;;;;1999.90;999.90;;;;;;;17.42;44.46;101172.59;15501038;28;20054;-60
2022/04/20 11:26:53;;;;;;;1999.90;999.90;;;;;;;15.87;46.52;101157.75;15490656;28;20518;-60
2022/04/20 11:34:26;;;;;;;1999.90;999.90;;;;;;;14.60;51.63;101149.75;15477139;28;20046;-62
2022/04/20 11:42:01;;;;;;;1999.90;999.90;;;;;;;14.66;55.87;101142.72;15480392;28;20034;-62
2022/04/20 11:49:35;;;;;;;1999.90;999.90;;;;;;;14.75;52.55;101155.81;15514777;28;20049;-62
2022/04/20 11:57:10;;;;;;;1999.90;999.90;;;;;;;15.05;51.10;101129.13;15485173;28;20100;-61
2022/04/20 12:04:43;;;;;;;1999.90;999.90;;;;;;;15.26;54.40;101106.47;15530267;28;20191;-62
2022/04/20 12:12:20;;;;;;;1999.90;999.90;;;;;;;15.46;55.98;101116.72;15480077;28;20035;-62
2022/04/20 12:19:53;;;;;;;1999.90;999.90;;;;;;;14.23;55.93;101114.31;15482070;28;20565;-62
2022/04/20 12:27:26;;;;;;;1999.90;999.90;;;;;;;14.93;56.44;101115.91;15491801;28;20504;-62
2022/04/20 12:35:01;;;;;;;1999.90;999.90;;;;;;;15.71;52.46;101113.84;15477931;28;20073;-62
2022/04/20 12:42:35;;;;;;;1999.90;999.90;;;;;;;15.94;51.59;101102.81;15512802;28;20052;-56
2022/04/20 12:50:24;;;;;;;1999.90;999.90;;;;;;;19.77;43.74;101097.56;15496772;28;20303;-61
2022/04/20 13:05:49;;;;;;;1999.90;999.90;;;;;;;17.68;45.56;101095.75;15522890;28;20073;-64
2022/04/20 13:13:26;;;;;;;;;;;;;;;18.36;43.20;101086.59;15481628;28;20452;-61
2022/04/20 13:21:03;;;;;;;1999.90;999.90;;;;;;;18.80;42.60;101066.34;15518635;28;19928;-63
2022/04/20 13:28:36;;;;;;;1999.90;999.90;;;;;;;19.45;41.55;101056.72;15566562;28;20050;-65
2022/04/20 13:36:10;;;;;;;1999.90;999.90;;;;;;;18.73;43.13;101049.25;15520658;28;20038;-64
2022/04/20 13:43:44;;;;;;;1999.90;999.90;;;;;;;17.10;45.58;101027.25;15491255;28;20411;-62
2022/04/20 13:51:16;;;;;;;1999.90;999.90;;;;;;;16.87;46.75;101013.84;15472539;28;20145;-63
2022/04/20 13:58:50;;;;;;;1999.90;999.90;;;;;;;16.74;47.42;101004.72;15501150;28;20061;-62
2022/04/20 14:06:22;;;;;;;1999.90;999.90;;;;;;;16.94;47.36;100994.28;15481933;28;20054;-61
2022/04/20 14:13:56;;;;;;;1999.90;999.90;;;;;;;16.70;46.54;100994.56;15494752;28;20053;-62
2022/04/20 14:21:29;;;;;;;1999.90;999.90;;;;;;;16.87;46.28;100993.31;15494338;28;20035;-61
2022/04/20 14:36:52;;;;;;;1999.90;999.90;;;;;;;18.09;45.13;100958.63;15472155;28;20050;-61
2022/04/20 14:44:27;;;;;;;1999.90;999.90;;;;;;;16.97;45.18;100956.09;15496894;28;20455;-61
2022/04/20 14:52:00;;;;;;;1999.90;999.90;;;;;;;16.93;44.71;100958.03;15476001;28;20097;-62
2022/04/20 14:59:34;;;;;;;1999.90;999.90;;;;;;;17.18;44.52;100945.25;15497328;28;20061;-60
2022/04/20 15:07:08;;;;;;;1999.90;999.90;;;;;;;16.98;44.96;100933.16;15497683;28;20042;-60
2022/04/20 15:14:42;;;;;;;1999.90;999.90;;;;;;;17.33;43.71;100920.16;15496958;28;20423;-60
2022/04/20 15:22:14;;;;;;;1999.90;999.90;;;;;;;17.57;44.89;100919.78;15479083;28;20145;-59
2022/04/20 15:29:48;;;;;;;1999.90;999.90;;;;;;;17.08;44.37;100920.47;15495634;28;20100;-61
2022/04/20 15:37:20;;;;;;;1999.90;999.90;;;;;;;16.79;45.10;100924.72;15478344;28;20081;-59
2022/04/20 15:44:57;;;;;;;1999.90;999.90;;;;;;;17.08;44.89;100912.00;15476050;28;20417;-61
2022/04/20 15:52:31;;;;;;;1999.90;999.90;;;;;;;17.13;45.54;100919.38;15492132;28;20046;-61
2022/04/20 16:00:14;;;;;;;1999.90;999.90;;;;;;;17.23;44.46;100921.56;15495479;28;20047;-60
2022/04/20 16:07:46;;;;;;;1999.90;999.90;;;;;;;16.79;43.32;100929.53;15476190;28;20042;-61
2022/04/20 16:15:21;;;;;;;1999.90;999.90;;;;;;;16.74;43.32;100919.38;15475849;28;20050;-61
2022/04/20 16:22:53;;;;;;;1999.90;999.90;;;;;;;16.49;42.75;100918.00;15493140;28;20046;-61
2022/04/20 16:30:32;;;;;;;1999.90;999.90;;;;;;;16.70;43.68;100902.41;15497727;28;20047;-61
2022/04/20 16:38:04;;;;;;;1999.90;999.90;;;;;;;15.98;43.88;100901.13;15489949;28;20062;-62
2022/04/20 16:45:38;;;;;;;1999.90;999.90;;;;;;;16.13;42.72;100908.72;15488187;28;20121;-61
2022/04/20 16:53:10;;;;;;;1999.90;999.90;;;;;;;16.25;43.00;100919.84;15489649;28;20042;-63
2022/04/20 17:00:44;;;;;;;1999.90;999.90;;;;;;;15.77;41.57;100905.03;15522702;28;20116;-62
2022/04/20 17:08:16;;;;;;;1999.90;999.90;;;;;;;15.93;43.14;100915.44;15499693;28;20129;-61
2022/04/20 17:15:50;;;;;;;1999.90;999.90;;;;;;;15.33;44.08;100934.38;15487466;28;20045;-61
2022/04/20 17:31:13;;;;;;;1999.90;999.90;;;;;;;15.24;44.54;100920.47;15514034;28;20105;-61
2022/04/20 17:38:46;;;;;;;1999.90;999.90;;;;;;;14.98;44.68;100906.91;15504669;28;20117;-60
2022/04/20 17:46:20;;;;;;;1999.90;999.90;;;;;;;14.97;44.08;100908.88;15524149;28;20465;-61
2022/04/20 17:53:52;;;;;;;1999.90;999.90;;;;;;;14.69;44.64;100911.72;15525049;28;20457;-61
2022/04/20 18:01:26;;;;;;;1999.90;999.90;;;;;;;14.77;44.92;100937.19;15518086;28;20290;-61
2022/04/20 18:08:59;;;;;;;1999.90;999.90;;;;;;;14.53;44.08;100935.28;15530351;28;20069;-60
2022/04/20 18:16:34;;;;;;;1999.90;999.90;;;;;;;14.56;43.63;100938.19;15505824;28;20039;-59
2022/04/20 18:24:08;;;;;;;1999.90;999.90;;;;;;;14.16;43.82;100936.09;15457448;28;20450;-60
2022/04/20 18:31:42;;;;;;;1999.90;999.90;;;;;;;14.44;43.20;100929.75;15484858;28;20049;-59
2022/04/20 18:39:14;;;;;;;1999.90;999.90;;;;;;;14.20;43.94;100935.41;15467902;28;20046;-62
2022/04/20 18:46:47;;;;;;;1999.90;999.90;;;;;;;14.25;45.15;100933.16;15487680;28;20080;-62
2022/04/20 19:02:11;;;;;;;1999.90;999.90;;;;;;;14.01;44.62;100941.63;15516356;28;20089;-61
2022/04/20 19:09:56;;;;;;;1999.90;999.90;;;;;;;14.02;45.10;100944.06;15502696;28;20515;-63
2022/04/20 19:17:30;;;;;;;1999.90;999.90;;;;;;;13.83;43.70;100944.63;15536258;28;20035;-59
2022/04/20 19:25:06;;;;;;;1999.90;999.90;;;;;;;13.45;43.33;100944.13;15546204;28;20053;-63
2022/04/20 19:32:39;;;;;;;1999.90;999.90;;;;;;;13.50;42.89;100939.09;15510787;28;20139;-60
2022/04/20 19:40:11;;;;;;;;;;;;;;;13.69;42.58;100938.56;15485204;28;20074;-60
2022/04/20 19:47:45;;;;;;;1999.90;999.90;;;;;;;13.29;41.96;100953.19;15480061;28;78175;-61
2022/04/20 19:55:17;;;;;;;1999.90;999.90;;;;;;;13.37;42.45;100951.47;15514227;28;20042;-63
2022/04/20 20:02:55;;;;;;;1999.90;999.90;;;;;;;13.33;41.48;100952.47;15495826;28;20534;-60
2022/04/20 20:10:27;;;;;;;1999.90;999.90;;;;;;;13.19;42.26;100959.22;15496883;28;20038;-61
2022/04/20 20:18:00;;;;;;;1999.90;999.90;;;;;;;13.03;42.84;100947.00;15495643;28;20101;-61
2022/04/20 20:33:24;;;;;;;1999.90;999.90;;;;;;;13.17;43.47;100949.50;15490898;28;20096;-61
2022/04/20 20:40:56;;;;;;;1999.90;999.90;;;;;;;13.12;43.76;100947.72;15503876;28;20144;-61
2022/04/20 20:56:23;;;;;;;1999.90;999.90;;;;;;;12.97;44.97;100948.38;15495080;28;20086;-60
2022/04/20 21:04:12;;;;;;;1999.90;999.90;;;;;;;12.76;45.77;100944.78;15460385;28;20057;-60
2022/04/20 21:11:47;;;;;;;1999.90;999.90;;;;;;;12.85;46.07;100932.34;15449011;28;20043;-62
2022/04/20 21:19:28;;;;;;;1999.90;999.90;;;;;;;12.77;46.27;100929.59;15483559;28;20047;-62
2022/04/20 21:27:04;;;;;;;1999.90;999.90;;;;;;;12.88;47.25;100914.84;15500420;28;20536;-61
2022/04/20 21:34:38;;;;;;;1999.90;999.90;;;;;;;12.94;47.04;100916.28;15486781;28;20081;-62
2022/04/20 21:42:11;;;;;;;1999.90;999.90;;;;;;;12.91;47.24;100911.34;15493140;28;20043;-62
2022/04/20 21:49:45;;;;;;;1999.90;999.90;;;;;;;12.87;47.47;100920.78;15486058;28;20082;-62
2022/04/20 21:57:18;;;;;;;1999.90;999.90;;;;;;;12.75;48.54;100926.34;15502906;28;20126;-62
2022/04/20 22:12:45;;;;;;;1999.90;999.90;;;;;;;12.16;49.42;100924.44;15486037;28;20042;-62
2022/04/20 22:20:19;;;;;;;1999.90;999.90;;;;;;;12.28;49.75;100932.09;15485993;28;20051;-61
2022/04/20 22:27:51;;;;;;;;;;;;;;;12.03;50.83;100920.75;15485869;28;20070;-62
2022/04/20 22:35:26;;;;;;;;;;;;;;;12.23;51.07;100923.94;15484909;28;19976;-62
2022/04/20 22:42:58;;;;;;;1999.90;999.90;;;;;;;11.87;52.05;100928.06;15501952;28;19926;-62
2022/04/20 22:50:32;;;;;;;1999.90;999.90;;;;;;;11.79;52.81;100924.19;15485446;28;20058;-63
2022/04/20 22:58:04;;;;;;;1999.90;999.90;;;;;;;11.88;53.39;100926.94;15501237;28;20050;-61
2022/04/20 23:05:39;;;;;;;1999.90;999.90;;;;;;;11.65;54.23;100923.53;15467207;28;20054;-61
2022/04/20 23:13:12;;;;;;;1999.90;999.90;;;;;;;11.26;55.54;100928.28;15500788;28;20046;-61
2022/04/20 23:20:47;;;;;;;1999.90;999.90;;;;;;;11.48;55.04;100927.22;15500475;28;20046;-62
2022/04/20 23:28:31;;;;;;;1999.90;999.90;;;;;;;11.11;56.33;100928.78;15499694;28;20121;-62
2022/04/20 23:36:06;;;;;;;1999.90;999.90;;;;;;;11.64;55.31;100933.06;15481827;28;20064;-62
2022/04/20 23:43:38;;;;;;;1999.90;999.90;;;;;;;11.54;55.77;100923.09;15481237;28;20046;-61
2022/04/20 23:51:12;;;;;;;1999.90;999.90;;;;;;;11.52;56.07;100919.81;15498028;28;20484;-62
2022/04/20 23:58:44;;;;;;;1999.90;999.90;;;;;;;11.44;56.79;100915.06;15480464;28;20045;-61
